Humidity-temperature Sensor

Selected Measurement Type: Relative Humidity

 
Relative Humidity [%]     6 entries per hour
Showing data from 12/28/2016 (00:00:00 Z) to 12/27/2016 (00:01:00 Z)
Previous Next [ Day | 3-Days | 7-Days ]
First Last
Prev [ Day | 3-Days | 7-Days ] Next
First Last

Start Time:     :
End Time:     :     
Time (in GMT) :00 :50 :40 :30 :20 :10
Previous Next [ Day | 3-Days | 7-Days ]
First Last
Prev [ Day | 3-Days | 7-Days ] Next
First Last


123 => good data
MM => data is determined as missing
-- => data not received/configured
Back to Top Back to Top
12/28/2016 00:00 to 23:10 73.92 72.65 72.27 72.84 73.50 73.77
12/27/2016 23:00 to 22:10 74.88 75.30 75.42 75.11 74.05 74.66
12/27/2016 22:00 to 21:10 74.09 73.81 74.03 73.73 74.34 73.73
12/27/2016 21:00 to 20:10 73.03 75.64 74.79 73.75 75.40 75.06
12/27/2016 20:00 to 19:10 75.26 75.55 76.44 76.06 75.28 75.62
12/27/2016 19:00 to 18:10 76.04 75.62 74.81 75.74 75.19 74.52
12/27/2016 18:00 to 17:10 74.18 74.03 74.83 73.90 73.31 76.25
12/27/2016 17:00 to 16:10 76.34 76.76 75.98 73.92 75.21 76.59
12/27/2016 16:00 to 15:10 75.91 77.10 77.63 76.84 77.54 77.74
12/27/2016 15:00 to 14:10 -- -- -- -- -- --
12/27/2016 14:00 to 13:10 77.29 77.04 76.42 76.34 77.08 76.53
12/27/2016 13:00 to 12:10 76.34 76.32 76.67 77.21 78.05 77.42
12/27/2016 12:00 to 11:10 77.25 76.99 76.67 78.43 78.39 77.90
12/27/2016 11:00 to 10:10 78.10 77.69 77.18 77.46 77.16 76.80
12/27/2016 10:00 to 9:10 77.90 76.59 76.93 76.87 76.00 76.31
12/27/2016 09:00 to 8:10 75.70 75.51 75.68 76.02 77.12 78.73
12/27/2016 08:00 to 7:10 76.70 76.27 76.19 77.65 77.80 77.61
12/27/2016 07:00 to 6:10 78.09 78.48 77.95 76.25 75.70 75.42
12/27/2016 06:00 to 5:10 74.90 74.94 74.30 74.66 75.85 75.43
12/27/2016 05:00 to 4:10 75.07 76.02 75.68 75.64 74.24 74.49
12/27/2016 04:00 to 3:10 73.48 72.50 72.95 72.57 72.93 73.41
12/27/2016 03:00 to 2:10 72.44 72.42 71.89 70.47 71.42 70.81
12/27/2016 02:00 to 1:10 72.38 74.30 74.64 73.46 72.82 72.44
12/27/2016 01:00 to 0:10 72.18 72.59 71.84 71.87 71.40 70.93